sensor_id;sensor_type;location;lat;lon;timestamp;temperature;humidity
13086;DHT22;6609;49.882;8.664;2022-10-31T00:04:30;12.90;89.20
13086;DHT22;6609;49.882;8.664;2022-10-31T00:06:58;12.90;89.30
13086;DHT22;6609;49.882;8.664;2022-10-31T00:14:19;12.80;89.40
13086;DHT22;6609;49.882;8.664;2022-10-31T00:26:35;12.70;89.50
13086;DHT22;6609;49.882;8.664;2022-10-31T00:31:29;12.60;89.60
13086;DHT22;6609;49.882;8.664;2022-10-31T00:33:57;12.60;89.50
13086;DHT22;6609;49.882;8.664;2022-10-31T00:36:23;12.60;89.70
13086;DHT22;6609;49.882;8.664;2022-10-31T00:41:18;12.60;89.60
13086;DHT22;6609;49.882;8.664;2022-10-31T00:43:45;12.60;89.70
13086;DHT22;6609;49.882;8.664;2022-10-31T00:48:39;12.50;89.90
13086;DHT22;6609;49.882;8.664;2022-10-31T00:51:07;12.50;89.80
13086;DHT22;6609;49.882;8.664;2022-10-31T00:53:34;12.50;90.00
13086;DHT22;6609;49.882;8.664;2022-10-31T00:56:01;12.50;90.00
13086;DHT22;6609;49.882;8.664;2022-10-31T00:58:29;12.40;90.00
13086;DHT22;6609;49.882;8.664;2022-10-31T01:00:55;12.40;90.00
13086;DHT22;6609;49.882;8.664;2022-10-31T01:03:27;12.40;90.00
13086;DHT22;6609;49.882;8.664;2022-10-31T01:06:02;12.40;90.10
13086;DHT22;6609;49.882;8.664;2022-10-31T01:11:01;12.40;90.00
13086;DHT22;6609;49.882;8.664;2022-10-31T01:13:29;12.40;90.00
13086;DHT22;6609;49.882;8.664;2022-10-31T01:21:00;12.30;90.00
13086;DHT22;6609;49.882;8.664;2022-10-31T01:26:03;12.20;90.00
13086;DHT22;6609;49.882;8.664;2022-10-31T01:28:32;12.20;90.00
13086;DHT22;6609;49.882;8.664;2022-10-31T01:31:03;12.20;90.00
13086;DHT22;6609;49.882;8.664;2022-10-31T01:33:30;12.20;90.00
13086;DHT22;6609;49.882;8.664;2022-10-31T01:35:57;12.20;90.10
13086;DHT22;6609;49.882;8.664;2022-10-31T01:40:51;12.10;90.10
13086;DHT22;6609;49.882;8.664;2022-10-31T01:45:51;12.10;90.00
13086;DHT22;6609;49.882;8.664;2022-10-31T01:48:21;12.10;90.00
13086;DHT22;6609;49.882;8.664;2022-10-31T01:53:18;12.00;90.10
13086;DHT22;6609;49.882;8.664;2022-10-31T01:55:46;12.00;90.10
13086;DHT22;6609;49.882;8.664;2022-10-31T01:58:14;12.00;90.10
13086;DHT22;6609;49.882;8.664;2022-10-31T02:00:44;12.00;90.10
13086;DHT22;6609;49.882;8.664;2022-10-31T02:03:14;12.00;90.10
13086;DHT22;6609;49.882;8.664;2022-10-31T02:05:41;12.00;90.20
13086;DHT22;6609;49.882;8.664;2022-10-31T02:08:11;12.00;90.20
13086;DHT22;6609;49.882;8.664;2022-10-31T02:10:40;12.00;90.20
13086;DHT22;6609;49.882;8.664;2022-10-31T02:13:09;12.00;90.10
13086;DHT22;6609;49.882;8.664;2022-10-31T02:15:37;12.00;90.10
13086;DHT22;6609;49.882;8.664;2022-10-31T02:18:05;12.00;90.20
13086;DHT22;6609;49.882;8.664;2022-10-31T02:20:39;12.00;90.20
13086;DHT22;6609;49.882;8.664;2022-10-31T02:23:42;12.00;90.20
13086;DHT22;6609;49.882;8.664;2022-10-31T02:26:41;12.00;90.10
13086;DHT22;6609;49.882;8.664;2022-10-31T02:29:22;12.00;90.20
13086;DHT22;6609;49.882;8.664;2022-10-31T02:32:01;12.00;90.20
13086;DHT22;6609;49.882;8.664;2022-10-31T02:34:36;12.00;90.20
13086;DHT22;6609;49.882;8.664;2022-10-31T02:37:10;12.00;90.20
13086;DHT22;6609;49.882;8.664;2022-10-31T02:39:44;12.00;90.20
13086;DHT22;6609;49.882;8.664;2022-10-31T02:42:18;12.00;90.10
13086;DHT22;6609;49.882;8.664;2022-10-31T02:44:53;12.00;90.20
13086;DHT22;6609;49.882;8.664;2022-10-31T02:47:26;11.90;90.00
13086;DHT22;6609;49.882;8.664;2022-10-31T02:49:57;11.90;90.00
13086;DHT22;6609;49.882;8.664;2022-10-31T02:52:27;11.80;89.90
13086;DHT22;6609;49.882;8.664;2022-10-31T02:54:54;11.80;90.00
13086;DHT22;6609;49.882;8.664;2022-10-31T02:57:24;11.80;89.90
13086;DHT22;6609;49.882;8.664;2022-10-31T02:59:54;11.80;90.00
13086;DHT22;6609;49.882;8.664;2022-10-31T03:05:23;11.80;90.00
13086;DHT22;6609;49.882;8.664;2022-10-31T03:07:58;11.80;90.10
13086;DHT22;6609;49.882;8.664;2022-10-31T03:10:33;11.80;90.00
13086;DHT22;6609;49.882;8.664;2022-10-31T03:13:08;11.80;90.00
13086;DHT22;6609;49.882;8.664;2022-10-31T03:15:39;11.80;90.10
13086;DHT22;6609;49.882;8.664;2022-10-31T03:18:11;11.80;90.20
13086;DHT22;6609;49.882;8.664;2022-10-31T03:20:43;11.70;90.10
13086;DHT22;6609;49.882;8.664;2022-10-31T03:23:14;11.70;90.20
13086;DHT22;6609;49.882;8.664;2022-10-31T03:25:43;11.70;90.10
13086;DHT22;6609;49.882;8.664;2022-10-31T03:28:12;11.70;90.20
13086;DHT22;6609;49.882;8.664;2022-10-31T03:30:42;11.70;90.20
13086;DHT22;6609;49.882;8.664;2022-10-31T03:33:16;11.70;90.10
13086;DHT22;6609;49.882;8.664;2022-10-31T03:35:47;11.70;90.10
13086;DHT22;6609;49.882;8.664;2022-10-31T03:38:14;11.70;90.20
13086;DHT22;6609;49.882;8.664;2022-10-31T03:40:44;11.70;90.30
13086;DHT22;6609;49.882;8.664;2022-10-31T03:45:43;11.70;90.20
13086;DHT22;6609;49.882;8.664;2022-10-31T03:48:13;11.70;90.20
13086;DHT22;6609;49.882;8.664;2022-10-31T03:50:47;11.70;90.10
13086;DHT22;6609;49.882;8.664;2022-10-31T03:55:50;11.60;90.10
13086;DHT22;6609;49.882;8.664;2022-10-31T03:58:21;11.60;90.20
13086;DHT22;6609;49.882;8.664;2022-10-31T04:00:48;11.60;90.30
13086;DHT22;6609;49.882;8.664;2022-10-31T04:03:22;11.60;90.20
13086;DHT22;6609;49.882;8.664;2022-10-31T04:05:52;11.60;90.30
13086;DHT22;6609;49.882;8.664;2022-10-31T04:08:22;11.60;90.30
13086;DHT22;6609;49.882;8.664;2022-10-31T04:10:51;11.60;90.40
13086;DHT22;6609;49.882;8.664;2022-10-31T04:13:22;13.70;91.20
13086;DHT22;6609;49.882;8.664;2022-10-31T04:15:52;11.60;90.50
13086;DHT22;6609;49.882;8.664;2022-10-31T04:18:22;11.60;90.50
13086;DHT22;6609;49.882;8.664;2022-10-31T04:20:49;11.60;90.50
13086;DHT22;6609;49.882;8.664;2022-10-31T04:23:19;11.60;90.50
13086;DHT22;6609;49.882;8.664;2022-10-31T04:33:07;11.60;90.40
13086;DHT22;6609;49.882;8.664;2022-10-31T04:35:35;11.60;90.40
13086;DHT22;6609;49.882;8.664;2022-10-31T04:40:29;11.60;90.50
13086;DHT22;6609;49.882;8.664;2022-10-31T04:42:55;11.60;90.50
13086;DHT22;6609;49.882;8.664;2022-10-31T04:47:49;11.50;90.50
13086;DHT22;6609;49.882;8.664;2022-10-31T04:52:45;11.60;90.60
13086;DHT22;6609;49.882;8.664;2022-10-31T04:55:13;11.60;90.60
13086;DHT22;6609;49.882;8.664;2022-10-31T05:00:09;11.60;90.70
13086;DHT22;6609;49.882;8.664;2022-10-31T05:02:43;11.40;90.60
13086;DHT22;6609;49.882;8.664;2022-10-31T05:07:39;11.60;90.80
13086;DHT22;6609;49.882;8.664;2022-10-31T05:10:08;11.60;91.00
13086;DHT22;6609;49.882;8.664;2022-10-31T05:12:36;11.60;91.00
13086;DHT22;6609;49.882;8.664;2022-10-31T05:17:30;11.60;91.00
13086;DHT22;6609;49.882;8.664;2022-10-31T05:24:51;11.60;90.80
13086;DHT22;6609;49.882;8.664;2022-10-31T05:27:19;11.50;90.80
13086;DHT22;6609;49.882;8.664;2022-10-31T05:29:46;11.50;90.80
13086;DHT22;6609;49.882;8.664;2022-10-31T05:37:07;11.50;90.80
13086;DHT22;6609;49.882;8.664;2022-10-31T05:42:01;11.40;90.70
13086;DHT22;6609;49.882;8.664;2022-10-31T05:44:29;11.40;90.70
13086;DHT22;6609;49.882;8.664;2022-10-31T05:49:22;11.40;90.70
13086;DHT22;6609;49.882;8.664;2022-10-31T05:51:49;11.40;90.80
13086;DHT22;6609;49.882;8.664;2022-10-31T05:59:10;11.30;90.80
13086;DHT22;6609;49.882;8.664;2022-10-31T06:01:38;11.40;90.90
13086;DHT22;6609;49.882;8.664;2022-10-31T06:06:32;11.40;90.90
13086;DHT22;6609;49.882;8.664;2022-10-31T06:08:58;11.40;90.90
13086;DHT22;6609;49.882;8.664;2022-10-31T06:13:52;11.40;90.90
13086;DHT22;6609;49.882;8.664;2022-10-31T06:18:48;11.40;90.80
13086;DHT22;6609;49.882;8.664;2022-10-31T06:21:14;11.40;90.90
13086;DHT22;6609;49.882;8.664;2022-10-31T06:23:41;11.50;90.90
13086;DHT22;6609;49.882;8.664;2022-10-31T06:35:57;11.60;90.60
13086;DHT22;6609;49.882;8.664;2022-10-31T06:38:25;11.50;90.60
13086;DHT22;6609;49.882;8.664;2022-10-31T06:40:52;11.50;90.70
13086;DHT22;6609;49.882;8.664;2022-10-31T06:45:45;11.60;90.70
13086;DHT22;6609;49.882;8.664;2022-10-31T06:53:10;11.80;90.60
13086;DHT22;6609;49.882;8.664;2022-10-31T07:07:54;12.00;90.50
13086;DHT22;6609;49.882;8.664;2022-10-31T07:10:23;12.10;90.60
13086;DHT22;6609;49.882;8.664;2022-10-31T07:12:54;12.10;90.70
13086;DHT22;6609;49.882;8.664;2022-10-31T07:15:21;12.20;90.90
13086;DHT22;6609;49.882;8.664;2022-10-31T07:20:15;12.40;91.00
13086;DHT22;6609;49.882;8.664;2022-10-31T07:27:38;12.60;90.70
13086;DHT22;6609;49.882;8.664;2022-10-31T07:30:07;12.70;90.80
13086;DHT22;6609;49.882;8.664;2022-10-31T07:32:38;12.70;90.70
13086;DHT22;6609;49.882;8.664;2022-10-31T07:35:06;12.80;90.70
13086;DHT22;6609;49.882;8.664;2022-10-31T07:37:33;12.80;90.60
13086;DHT22;6609;49.882;8.664;2022-10-31T07:42:27;12.90;90.30
13086;DHT22;6609;49.882;8.664;2022-10-31T07:44:55;12.90;90.30
13086;DHT22;6609;49.882;8.664;2022-10-31T07:47:22;12.90;90.30
13086;DHT22;6609;49.882;8.664;2022-10-31T08:02:05;13.10;89.40
13086;DHT22;6609;49.882;8.664;2022-10-31T08:14:20;13.20;89.20
13086;DHT22;6609;49.882;8.664;2022-10-31T08:21:43;13.30;89.30
13086;DHT22;6609;49.882;8.664;2022-10-31T08:38:54;14.30;87.50
13086;DHT22;6609;49.882;8.664;2022-10-31T08:41:21;14.40;85.90
13086;DHT22;6609;49.882;8.664;2022-10-31T08:43:47;14.50;85.40
13086;DHT22;6609;49.882;8.664;2022-10-31T08:48:41;14.70;84.70
13086;DHT22;6609;49.882;8.664;2022-10-31T08:56:04;14.80;83.70
13086;DHT22;6609;49.882;8.664;2022-10-31T09:00:59;14.80;83.70
13086;DHT22;6609;49.882;8.664;2022-10-31T09:03:28;14.80;83.30
13086;DHT22;6609;49.882;8.664;2022-10-31T09:05:56;14.80;83.20
13086;DHT22;6609;49.882;8.664;2022-10-31T09:10:52;14.80;83.00
13086;DHT22;6609;49.882;8.664;2022-10-31T09:15:49;15.00;83.30
13086;DHT22;6609;49.882;8.664;2022-10-31T09:18:19;15.10;83.00
13086;DHT22;6609;49.882;8.664;2022-10-31T09:20:47;15.20;82.60
13086;DHT22;6609;49.882;8.664;2022-10-31T09:23:16;15.20;82.40
13086;DHT22;6609;49.882;8.664;2022-10-31T09:33:09;15.40;82.50
13086;DHT22;6609;49.882;8.664;2022-10-31T09:38:05;15.40;81.90
13086;DHT22;6609;49.882;8.664;2022-10-31T09:40:36;15.50;81.60
13086;DHT22;6609;49.882;8.664;2022-10-31T09:43:09;15.70;81.00
13086;DHT22;6609;49.882;8.664;2022-10-31T09:45:47;15.80;80.50
13086;DHT22;6609;49.882;8.664;2022-10-31T09:48:37;16.00;79.90
13086;DHT22;6609;49.882;8.664;2022-10-31T09:51:09;16.20;79.40
13086;DHT22;6609;49.882;8.664;2022-10-31T09:53:40;16.40;78.40
13086;DHT22;6609;49.882;8.664;2022-10-31T09:56:11;16.70;77.90
13086;DHT22;6609;49.882;8.664;2022-10-31T09:58:42;16.90;76.80
13086;DHT22;6609;49.882;8.664;2022-10-31T10:04:02;17.40;75.10
13086;DHT22;6609;49.882;8.664;2022-10-31T10:06:34;17.60;74.40
13086;DHT22;6609;49.882;8.664;2022-10-31T10:09:02;17.60;74.40
13086;DHT22;6609;49.882;8.664;2022-10-31T10:11:46;17.70;73.60
13086;DHT22;6609;49.882;8.664;2022-10-31T10:14:29;17.80;73.10
13086;DHT22;6609;49.882;8.664;2022-10-31T10:17:14;17.70;72.50
13086;DHT22;6609;49.882;8.664;2022-10-31T10:19:54;17.70;72.50
13086;DHT22;6609;49.882;8.664;2022-10-31T10:22:28;17.70;72.10
13086;DHT22;6609;49.882;8.664;2022-10-31T10:25:07;17.70;71.90
13086;DHT22;6609;49.882;8.664;2022-10-31T10:27:49;17.60;71.70
13086;DHT22;6609;49.882;8.664;2022-10-31T10:30:19;17.60;71.80
13086;DHT22;6609;49.882;8.664;2022-10-31T10:32:49;17.70;71.90
13086;DHT22;6609;49.882;8.664;2022-10-31T10:35:23;17.70;72.00
13086;DHT22;6609;49.882;8.664;2022-10-31T10:37:52;17.70;72.10
13086;DHT22;6609;49.882;8.664;2022-10-31T10:40:24;17.60;72.30
13086;DHT22;6609;49.882;8.664;2022-10-31T10:42:58;17.60;72.50
13086;DHT22;6609;49.882;8.664;2022-10-31T10:45:46;17.70;72.70
13086;DHT22;6609;49.882;8.664;2022-10-31T10:48:42;17.70;72.70
13086;DHT22;6609;49.882;8.664;2022-10-31T10:51:21;17.70;72.50
13086;DHT22;6609;49.882;8.664;2022-10-31T10:53:58;17.80;72.10
13086;DHT22;6609;49.882;8.664;2022-10-31T10:56:39;17.80;71.70
13086;DHT22;6609;49.882;8.664;2022-10-31T10:59:10;17.80;71.70
13086;DHT22;6609;49.882;8.664;2022-10-31T11:01:39;18.00;71.60
13086;DHT22;6609;49.882;8.664;2022-10-31T11:04:21;18.00;71.60
13086;DHT22;6609;49.882;8.664;2022-10-31T11:06:57;18.20;71.50
13086;DHT22;6609;49.882;8.664;2022-10-31T11:11:51;18.50;70.80
13086;DHT22;6609;49.882;8.664;2022-10-31T11:14:18;18.60;70.20
13086;DHT22;6609;49.882;8.664;2022-10-31T11:16:50;18.80;69.90
13086;DHT22;6609;49.882;8.664;2022-10-31T11:19:22;19.00;69.30
13086;DHT22;6609;49.882;8.664;2022-10-31T11:21:50;19.00;69.00
13086;DHT22;6609;49.882;8.664;2022-10-31T11:24:19;19.20;68.60
13086;DHT22;6609;49.882;8.664;2022-10-31T11:26:47;19.40;68.10
13086;DHT22;6609;49.882;8.664;2022-10-31T11:29:16;19.40;67.20
13086;DHT22;6609;49.882;8.664;2022-10-31T11:31:45;19.40;67.10
13086;DHT22;6609;49.882;8.664;2022-10-31T11:34:22;19.40;67.10
13086;DHT22;6609;49.882;8.664;2022-10-31T11:39:21;19.40;66.30
13086;DHT22;6609;49.882;8.664;2022-10-31T11:41:50;19.40;66.00
13086;DHT22;6609;49.882;8.664;2022-10-31T11:44:19;19.30;66.30
13086;DHT22;6609;49.882;8.664;2022-10-31T11:46:48;19.30;66.50
13086;DHT22;6609;49.882;8.664;2022-10-31T11:49:20;19.30;66.70
13086;DHT22;6609;49.882;8.664;2022-10-31T11:51:49;19.30;66.80
13086;DHT22;6609;49.882;8.664;2022-10-31T11:54:23;19.30;66.80
13086;DHT22;6609;49.882;8.664;2022-10-31T11:56:51;19.40;66.60
13086;DHT22;6609;49.882;8.664;2022-10-31T11:59:24;19.30;66.60
13086;DHT22;6609;49.882;8.664;2022-10-31T12:01:53;19.30;66.70
13086;DHT22;6609;49.882;8.664;2022-10-31T12:04:30;19.40;66.70
13086;DHT22;6609;49.882;8.664;2022-10-31T12:06:58;19.40;66.60
13086;DHT22;6609;49.882;8.664;2022-10-31T12:09:27;19.40;66.80
13086;DHT22;6609;49.882;8.664;2022-10-31T12:12:13;19.40;66.80
13086;DHT22;6609;49.882;8.664;2022-10-31T12:14:52;19.40;66.60
13086;DHT22;6609;49.882;8.664;2022-10-31T12:17:23;19.40;66.70
13086;DHT22;6609;49.882;8.664;2022-10-31T12:20:00;19.50;66.90
13086;DHT22;6609;49.882;8.664;2022-10-31T12:22:37;19.50;66.90
13086;DHT22;6609;49.882;8.664;2022-10-31T12:25:15;19.50;66.70
13086;DHT22;6609;49.882;8.664;2022-10-31T12:28:07;19.60;66.90
13086;DHT22;6609;49.882;8.664;2022-10-31T12:30:48;19.70;66.80
13086;DHT22;6609;49.882;8.664;2022-10-31T12:33:38;19.70;66.40
13086;DHT22;6609;49.882;8.664;2022-10-31T12:36:25;19.70;66.40
13086;DHT22;6609;49.882;8.664;2022-10-31T12:39:12;19.70;66.80
13086;DHT22;6609;49.882;8.664;2022-10-31T12:41:50;19.60;66.70
13086;DHT22;6609;49.882;8.664;2022-10-31T12:44:31;19.60;66.30
13086;DHT22;6609;49.882;8.664;2022-10-31T12:47:25;19.70;66.50
13086;DHT22;6609;49.882;8.664;2022-10-31T12:50:02;19.70;66.40
13086;DHT22;6609;49.882;8.664;2022-10-31T12:52:50;19.70;66.20
13086;DHT22;6609;49.882;8.664;2022-10-31T12:55:35;19.60;66.50
13086;DHT22;6609;49.882;8.664;2022-10-31T12:58:07;19.60;66.00
13086;DHT22;6609;49.882;8.664;2022-10-31T13:00:36;19.60;66.00
13086;DHT22;6609;49.882;8.664;2022-10-31T13:03:19;19.60;66.10
13086;DHT22;6609;49.882;8.664;2022-10-31T13:05:50;19.60;66.20
13086;DHT22;6609;49.882;8.664;2022-10-31T13:08:22;19.60;66.40
13086;DHT22;6609;49.882;8.664;2022-10-31T13:11:02;19.60;66.70
13086;DHT22;6609;49.882;8.664;2022-10-31T13:13:35;19.50;66.80
13086;DHT22;6609;49.882;8.664;2022-10-31T13:16:10;19.40;67.10
13086;DHT22;6609;49.882;8.664;2022-10-31T13:18:40;19.40;67.20
13086;DHT22;6609;49.882;8.664;2022-10-31T13:21:12;19.40;67.40
13086;DHT22;6609;49.882;8.664;2022-10-31T13:26:13;19.30;67.70
13086;DHT22;6609;49.882;8.664;2022-10-31T13:28:46;19.30;68.00
13086;DHT22;6609;49.882;8.664;2022-10-31T13:36:19;19.30;68.70
13086;DHT22;6609;49.882;8.664;2022-10-31T13:38:52;19.30;68.70
13086;DHT22;6609;49.882;8.664;2022-10-31T13:41:33;19.20;69.20
13086;DHT22;6609;49.882;8.664;2022-10-31T13:44:09;19.20;69.30
13086;DHT22;6609;49.882;8.664;2022-10-31T13:46:38;19.10;69.60
13086;DHT22;6609;49.882;8.664;2022-10-31T13:49:24;19.10;69.80
13086;DHT22;6609;49.882;8.664;2022-10-31T13:51:51;19.70;70.70
13086;DHT22;6609;49.882;8.664;2022-10-31T13:54:31;19.00;70.20
13086;DHT22;6609;49.882;8.664;2022-10-31T13:59:27;18.90;70.40
13086;DHT22;6609;49.882;8.664;2022-10-31T14:01:58;18.90;70.90
13086;DHT22;6609;49.882;8.664;2022-10-31T14:04:29;18.80;70.90
13086;DHT22;6609;49.882;8.664;2022-10-31T14:07:05;18.80;71.20
13086;DHT22;6609;49.882;8.664;2022-10-31T14:12:06;18.80;71.30
13086;DHT22;6609;49.882;8.664;2022-10-31T14:14:42;18.80;71.40
13086;DHT22;6609;49.882;8.664;2022-10-31T14:17:20;18.70;71.30
13086;DHT22;6609;49.882;8.664;2022-10-31T14:19:59;18.70;71.60
13086;DHT22;6609;49.882;8.664;2022-10-31T14:22:30;18.70;71.90
13086;DHT22;6609;49.882;8.664;2022-10-31T14:27:49;18.60;72.40
13086;DHT22;6609;49.882;8.664;2022-10-31T14:30:20;18.70;72.70
13086;DHT22;6609;49.882;8.664;2022-10-31T14:32:51;18.80;72.70
13086;DHT22;6609;49.882;8.664;2022-10-31T14:35:20;18.90;72.60
13086;DHT22;6609;49.882;8.664;2022-10-31T14:38:06;19.00;72.50
13086;DHT22;6609;49.882;8.664;2022-10-31T14:40:42;19.00;72.10
13086;DHT22;6609;49.882;8.664;2022-10-31T14:43:52;19.10;71.80
13086;DHT22;6609;49.882;8.664;2022-10-31T14:46:30;19.10;71.80
13086;DHT22;6609;49.882;8.664;2022-10-31T14:49:14;19.10;71.70
13086;DHT22;6609;49.882;8.664;2022-10-31T14:51:45;19.10;71.60
13086;DHT22;6609;49.882;8.664;2022-10-31T14:54:15;19.10;71.60
13086;DHT22;6609;49.882;8.664;2022-10-31T14:56:50;19.10;71.60
13086;DHT22;6609;49.882;8.664;2022-10-31T14:59:21;19.00;71.70
13086;DHT22;6609;49.882;8.664;2022-10-31T15:01:56;18.90;71.90
13086;DHT22;6609;49.882;8.664;2022-10-31T15:06:57;18.70;72.10
13086;DHT22;6609;49.882;8.664;2022-10-31T15:11:55;18.60;72.70
13086;DHT22;6609;49.882;8.664;2022-10-31T15:14:24;18.50;72.90
13086;DHT22;6609;49.882;8.664;2022-10-31T15:16:51;18.40;73.40
13086;DHT22;6609;49.882;8.664;2022-10-31T15:19:22;18.40;73.60
13086;DHT22;6609;49.882;8.664;2022-10-31T15:21:51;18.30;73.90
13086;DHT22;6609;49.882;8.664;2022-10-31T15:26:49;18.10;74.80
13086;DHT22;6609;49.882;8.664;2022-10-31T15:29:19;18.00;75.10
13086;DHT22;6609;49.882;8.664;2022-10-31T15:31:52;18.00;76.10
13086;DHT22;6609;49.882;8.664;2022-10-31T15:34:22;17.90;76.70
13086;DHT22;6609;49.882;8.664;2022-10-31T15:41:49;17.70;78.50
13086;DHT22;6609;49.882;8.664;2022-10-31T15:44:21;17.60;78.90
13086;DHT22;6609;49.882;8.664;2022-10-31T15:46:56;17.50;79.40
13086;DHT22;6609;49.882;8.664;2022-10-31T15:49:32;17.40;79.90
13086;DHT22;6609;49.882;8.664;2022-10-31T15:52:07;17.40;80.20
13086;DHT22;6609;49.882;8.664;2022-10-31T15:54:44;17.30;80.90
13086;DHT22;6609;49.882;8.664;2022-10-31T15:57:12;17.30;81.50
13086;DHT22;6609;49.882;8.664;2022-10-31T15:59:41;17.20;81.80
13086;DHT22;6609;49.882;8.664;2022-10-31T16:02:12;17.20;82.30
13086;DHT22;6609;49.882;8.664;2022-10-31T16:04:48;17.20;82.70
13086;DHT22;6609;49.882;8.664;2022-10-31T16:07:17;17.10;82.90
13086;DHT22;6609;49.882;8.664;2022-10-31T16:09:55;17.10;83.20
13086;DHT22;6609;49.882;8.664;2022-10-31T16:14:53;17.00;83.60
13086;DHT22;6609;49.882;8.664;2022-10-31T16:17:22;17.00;84.00
13086;DHT22;6609;49.882;8.664;2022-10-31T16:19:53;16.90;84.30
13086;DHT22;6609;49.882;8.664;2022-10-31T16:22:24;16.90;84.40
13086;DHT22;6609;49.882;8.664;2022-10-31T16:24:56;16.90;84.60
13086;DHT22;6609;49.882;8.664;2022-10-31T16:27:25;16.90;84.60
13086;DHT22;6609;49.882;8.664;2022-10-31T16:29:56;16.90;84.60
13086;DHT22;6609;49.882;8.664;2022-10-31T16:35:21;16.90;84.40
13086;DHT22;6609;49.882;8.664;2022-10-31T16:37:49;16.80;84.40
13086;DHT22;6609;49.882;8.664;2022-10-31T16:40:16;16.90;84.30
13086;DHT22;6609;49.882;8.664;2022-10-31T16:42:44;16.80;83.90
13086;DHT22;6609;49.882;8.664;2022-10-31T16:45:17;16.90;83.80
13086;DHT22;6609;49.882;8.664;2022-10-31T16:47:44;16.90;83.40
13086;DHT22;6609;49.882;8.664;2022-10-31T16:50:13;16.90;83.10
13086;DHT22;6609;49.882;8.664;2022-10-31T16:52:40;16.90;83.00
13086;DHT22;6609;49.882;8.664;2022-10-31T16:55:11;16.90;82.90
13086;DHT22;6609;49.882;8.664;2022-10-31T16:57:38;16.90;82.60
13086;DHT22;6609;49.882;8.664;2022-10-31T17:00:13;16.90;82.60
13086;DHT22;6609;49.882;8.664;2022-10-31T17:02:41;16.80;82.50
13086;DHT22;6609;49.882;8.664;2022-10-31T17:05:13;16.80;82.50
13086;DHT22;6609;49.882;8.664;2022-10-31T17:07:40;16.80;82.50
13086;DHT22;6609;49.882;8.664;2022-10-31T17:10:08;16.80;82.70
13086;DHT22;6609;49.882;8.664;2022-10-31T17:12:36;16.80;82.70
13086;DHT22;6609;49.882;8.664;2022-10-31T17:15:05;16.80;82.90
13086;DHT22;6609;49.882;8.664;2022-10-31T17:20:01;16.80;82.90
13086;DHT22;6609;49.882;8.664;2022-10-31T17:22:28;16.80;83.10
13086;DHT22;6609;49.882;8.664;2022-10-31T17:27:22;16.70;83.20
13086;DHT22;6609;49.882;8.664;2022-10-31T17:34:44;16.70;83.20
13086;DHT22;6609;49.882;8.664;2022-10-31T17:37:12;16.70;83.40
13086;DHT22;6609;49.882;8.664;2022-10-31T17:42:06;16.70;83.50
13086;DHT22;6609;49.882;8.664;2022-10-31T17:47:00;16.60;83.60
13086;DHT22;6609;49.882;8.664;2022-10-31T17:51:53;16.50;83.70
13086;DHT22;6609;49.882;8.664;2022-10-31T17:54:22;16.60;83.80
13086;DHT22;6609;49.882;8.664;2022-10-31T18:01:42;16.40;84.10
13086;DHT22;6609;49.882;8.664;2022-10-31T18:06:36;16.40;84.40
13086;DHT22;6609;49.882;8.664;2022-10-31T18:09:04;16.30;84.40
13086;DHT22;6609;49.882;8.664;2022-10-31T18:11:32;16.30;84.30
13086;DHT22;6609;49.882;8.664;2022-10-31T18:13:59;16.30;84.40
13086;DHT22;6609;49.882;8.664;2022-10-31T18:18:55;16.10;84.90
13086;DHT22;6609;49.882;8.664;2022-10-31T18:26:20;16.00;84.90
13086;DHT22;6609;49.882;8.664;2022-10-31T18:31:16;15.90;85.20
13086;DHT22;6609;49.882;8.664;2022-10-31T18:36:11;15.90;85.50
13086;DHT22;6609;49.882;8.664;2022-10-31T18:38:39;15.90;85.50
13086;DHT22;6609;49.882;8.664;2022-10-31T18:41:06;15.90;85.50
13086;DHT22;6609;49.882;8.664;2022-10-31T18:46:03;15.70;85.80
13086;DHT22;6609;49.882;8.664;2022-10-31T18:53:24;15.60;86.20
13086;DHT22;6609;49.882;8.664;2022-10-31T18:55:51;15.50;86.40
13086;DHT22;6609;49.882;8.664;2022-10-31T18:58:18;15.40;86.80
13086;DHT22;6609;49.882;8.664;2022-10-31T19:00:45;15.40;87.20
13086;DHT22;6609;49.882;8.664;2022-10-31T19:03:13;15.40;87.20
13086;DHT22;6609;49.882;8.664;2022-10-31T19:10:35;15.30;88.00
13086;DHT22;6609;49.882;8.664;2022-10-31T19:13:02;15.20;88.20
13086;DHT22;6609;49.882;8.664;2022-10-31T19:20:26;15.20;88.90
13086;DHT22;6609;49.882;8.664;2022-10-31T19:27:47;15.10;89.90
13086;DHT22;6609;49.882;8.664;2022-10-31T19:30:13;15.20;90.10
13086;DHT22;6609;49.882;8.664;2022-10-31T19:32:40;15.10;90.10
13086;DHT22;6609;49.882;8.664;2022-10-31T19:35:08;15.20;90.10
13086;DHT22;6609;49.882;8.664;2022-10-31T19:37:38;15.10;90.20
13086;DHT22;6609;49.882;8.664;2022-10-31T19:40:07;15.10;90.20
13086;DHT22;6609;49.882;8.664;2022-10-31T19:42:34;15.10;90.40
13086;DHT22;6609;49.882;8.664;2022-10-31T19:47:28;15.10;90.40
13086;DHT22;6609;49.882;8.664;2022-10-31T19:49:55;15.00;90.50
13086;DHT22;6609;49.882;8.664;2022-10-31T19:54:50;15.00;90.80
13086;DHT22;6609;49.882;8.664;2022-10-31T19:57:16;15.00;90.80
13086;DHT22;6609;49.882;8.664;2022-10-31T20:02:12;15.00;91.00
13086;DHT22;6609;49.882;8.664;2022-10-31T20:04:44;15.00;91.00
13086;DHT22;6609;49.882;8.664;2022-10-31T20:12:06;14.90;91.10
13086;DHT22;6609;49.882;8.664;2022-10-31T20:14:33;14.90;91.10
13086;DHT22;6609;49.882;8.664;2022-10-31T20:19:27;14.80;91.20
13086;DHT22;6609;49.882;8.664;2022-10-31T20:21:54;14.80;91.30
13086;DHT22;6609;49.882;8.664;2022-10-31T20:26:47;14.80;91.40
13086;DHT22;6609;49.882;8.664;2022-10-31T20:29:16;14.80;91.30
13086;DHT22;6609;49.882;8.664;2022-10-31T20:31:45;14.80;91.20
13086;DHT22;6609;49.882;8.664;2022-10-31T20:46:32;14.60;91.20
13086;DHT22;6609;49.882;8.664;2022-10-31T20:48:58;14.50;91.30
13086;DHT22;6609;49.882;8.664;2022-10-31T20:51:26;14.50;91.30
13086;DHT22;6609;49.882;8.664;2022-10-31T20:53:55;14.50;91.20
13086;DHT22;6609;49.882;8.664;2022-10-31T20:58:50;14.40;91.20
13086;DHT22;6609;49.882;8.664;2022-10-31T21:03:47;14.40;91.20
13086;DHT22;6609;49.882;8.664;2022-10-31T21:06:15;14.30;91.20
13086;DHT22;6609;49.882;8.664;2022-10-31T21:08:42;14.30;91.30
13086;DHT22;6609;49.882;8.664;2022-10-31T21:13:38;14.30;91.80
13086;DHT22;6609;49.882;8.664;2022-10-31T21:16:08;14.30;91.90
13086;DHT22;6609;49.882;8.664;2022-10-31T21:18:35;14.30;91.90
13086;DHT22;6609;49.882;8.664;2022-10-31T21:26:06;14.40;92.00
13086;DHT22;6609;49.882;8.664;2022-10-31T21:28:33;14.40;92.00
13086;DHT22;6609;49.882;8.664;2022-10-31T21:31:04;14.40;92.00
13086;DHT22;6609;49.882;8.664;2022-10-31T21:40:58;14.30;91.90
13086;DHT22;6609;49.882;8.664;2022-10-31T21:53:14;14.40;92.10
13086;DHT22;6609;49.882;8.664;2022-10-31T21:56:03;14.40;92.10
13086;DHT22;6609;49.882;8.664;2022-10-31T22:01:00;14.40;92.20
13086;DHT22;6609;49.882;8.664;2022-10-31T22:15:44;14.40;92.30
13086;DHT22;6609;49.882;8.664;2022-10-31T22:20:37;14.40;92.40
13086;DHT22;6609;49.882;8.664;2022-10-31T22:25:34;14.40;92.30
13086;DHT22;6609;49.882;8.664;2022-10-31T22:30:33;14.40;92.30
13086;DHT22;6609;49.882;8.664;2022-10-31T22:37:54;14.40;92.30
13086;DHT22;6609;49.882;8.664;2022-10-31T22:40:20;14.40;92.40